Time;durP1;ratioP1;P1;durP2;ratioP2;P2;SDS_P1;SDS_P2;PMS_P1;PMS_P2;Temp;Humidity;BMP_temperature;BMP_pressure;BME280_temperature;BME280_humidity;BME280_pressure;Samples;Min_cycle;Max_cycle;Signal;HPM_P1;HPM_P2
2021/11/08 00:00:28;;;;;;;1.50;1.40;;;20.90;54.30;;;;;;5024406;28;20283;-40
2021/11/08 00:02:59;;;;;;;1.35;1.20;;;20.90;54.30;;;;;;5031987;28;20212;-44
2021/11/08 00:05:30;;;;;;;1.75;1.30;;;20.90;54.30;;;;;;5031201;28;20288;-43
2021/11/08 00:08:02;;;;;;;1.67;1.48;;;20.90;54.30;;;;;;5030691;28;20294;-43
2021/11/08 00:10:34;;;;;;;1.55;1.30;;;21.00;54.30;;;;;;5030401;28;20211;-43
2021/11/08 00:13:07;;;;;;;1.88;1.33;;;21.00;54.30;;;;;;5026734;28;20816;-42
2021/11/08 00:15:47;;;;;;;2.35;1.40;;;21.00;54.30;;;;;;5020699;28;20223;-43
2021/11/08 00:18:26;;;;;;;1.65;1.50;;;21.00;54.30;;;;;;5029894;28;20200;-43
2021/11/08 00:20:56;;;;;;;3.30;1.33;;;21.10;54.30;;;;;;5030754;28;20620;-41
2021/11/08 00:23:27;;;;;;;1.48;1.35;;;21.10;54.30;;;;;;5029519;28;20216;-43
2021/11/08 00:25:59;;;;;;;1.63;1.50;;;21.10;54.30;;;;;;5028911;28;20192;-45
2021/11/08 00:28:30;;;;;;;1.58;1.48;;;21.10;54.30;;;;;;5030331;28;20704;-43
2021/11/08 00:31:02;;;;;;;1.50;1.40;;;21.10;54.20;;;;;;5030221;28;20295;-41
2021/11/08 00:33:32;;;;;;;1.48;1.30;;;21.10;54.20;;;;;;5028950;28;20259;-41
2021/11/08 00:36:04;;;;;;;1.67;1.27;;;21.10;54.20;;;;;;5029838;28;20287;-43
2021/11/08 00:38:35;;;;;;;2.15;1.65;;;21.20;54.30;;;;;;5028658;28;20208;-41
2021/11/08 00:41:06;;;;;;;2.08;1.27;;;21.20;54.30;;;;;;5028671;28;20299;-42
2021/11/08 00:43:36;;;;;;;1.52;1.42;;;21.20;54.30;;;;;;5029501;28;20222;-42
2021/11/08 00:46:09;;;;;;;2.30;1.40;;;21.20;54.20;;;;;;5029405;28;20200;-44
2021/11/08 00:48:39;;;;;;;2.13;1.67;;;21.20;54.20;;;;;;5027128;28;20200;-43
2021/11/08 00:51:10;;;;;;;1.55;1.30;;;21.30;54.20;;;;;;5030224;28;20656;-42
2021/11/08 00:53:40;;;;;;;1.80;1.65;;;21.30;54.20;;;;;;5031000;28;20303;-42
2021/11/08 00:56:15;;;;;;;1.88;1.50;;;21.30;54.20;;;;;;5026668;28;20295;-41
2021/11/08 00:58:46;;;;;;;1.92;1.65;;;21.40;54.20;;;;;;5027809;28;20204;-42
2021/11/08 01:01:20;;;;;;;2.58;1.98;;;21.40;54.20;;;;;;5029241;28;20219;-41
2021/11/08 01:03:52;;;;;;;3.00;1.80;;;21.40;54.20;;;;;;5030495;28;20302;-47
2021/11/08 01:06:23;;;;;;;1.67;1.45;;;21.50;54.30;;;;;;5028421;28;21706;-41
2021/11/08 01:08:53;;;;;;;2.00;1.50;;;21.50;54.30;;;;;;5028755;28;20679;-40
2021/11/08 01:11:24;;;;;;;1.92;1.77;;;21.50;54.30;;;;;;5029161;28;20623;-41
2021/11/08 01:13:54;;;;;;;2.15;1.80;;;21.50;54.20;;;;;;5029115;28;20676;-41
2021/11/08 01:16:27;;;;;;;2.03;1.77;;;21.50;54.20;;;;;;5030107;28;20212;-41
2021/11/08 01:18:57;;;;;;;1.67;1.58;;;21.50;54.20;;;;;;5028880;28;20287;-45
2021/11/08 01:21:29;;;;;;;2.03;1.77;;;21.60;54.20;;;;;;5029445;28;20255;-43
2021/11/08 01:24:00;;;;;;;2.75;2.08;;;21.60;54.30;;;;;;5028558;28;20319;-43
2021/11/08 01:26:30;;;;;;;1.73;1.58;;;21.60;54.30;;;;;;5028053;28;20692;-41
2021/11/08 01:29:01;;;;;;;1.75;1.60;;;21.60;54.30;;;;;;5028944;28;20192;-40
2021/11/08 01:31:33;;;;;;;2.20;2.00;;;21.60;54.20;;;;;;5028155;28;20295;-45
2021/11/08 01:34:04;;;;;;;2.05;1.80;;;21.60;54.20;;;;;;5014356;28;20251;-43
2021/11/08 01:36:37;;;;;;;2.33;1.90;;;21.70;54.40;;;;;;5029648;28;20291;-44
2021/11/08 01:39:16;;;;;;;1.73;1.63;;;21.70;54.30;;;;;;5029798;28;20197;-41
2021/11/08 01:41:46;;;;;;;2.05;1.90;;;21.70;54.30;;;;;;5029602;28;20246;-43
2021/11/08 01:44:17;;;;;;;2.40;2.20;;;21.70;54.20;;;;;;5028493;28;20238;-41
2021/11/08 01:46:49;;;;;;;2.03;1.83;;;21.80;54.30;;;;;;5027958;28;20215;-42
2021/11/08 01:49:20;;;;;;;2.20;2.00;;;21.80;54.30;;;;;;5027917;28;20279;-41
2021/11/08 01:51:51;;;;;;;2.45;2.25;;;21.80;54.30;;;;;;5028526;28;20196;-41
2021/11/08 01:54:22;;;;;;;2.55;1.90;;;21.80;54.30;;;;;;5028146;28;20304;-42
2021/11/08 01:56:54;;;;;;;2.70;2.08;;;21.80;54.40;;;;;;5024681;28;20279;-41
2021/11/08 01:59:25;;;;;;;2.00;1.80;;;21.90;54.50;;;;;;5028378;28;20610;-44
2021/11/08 02:01:57;;;;;;;2.17;1.98;;;21.90;54.50;;;;;;5029592;28;20310;-46
2021/11/08 02:04:28;;;;;;;2.97;1.90;;;21.90;54.40;;;;;;5029290;28;20222;-41
2021/11/08 02:06:59;;;;;;;2.28;2.10;;;21.90;54.40;;;;;;5028707;28;20206;-41
2021/11/08 02:09:29;;;;;;;2.25;2.08;;;21.90;54.50;;;;;;5028471;28;20287;-41
2021/11/08 02:12:00;;;;;;;2.17;1.77;;;22.00;54.50;;;;;;5028028;28;20294;-43
2021/11/08 02:14:30;;;;;;;2.25;2.05;;;22.00;54.40;;;;;;5027420;28;20651;-43
2021/11/08 02:17:03;;;;;;;3.38;2.13;;;22.00;54.30;;;;;;5028284;28;20283;-41
2021/11/08 02:19:33;;;;;;;2.20;2.00;;;22.00;54.30;;;;;;5028104;28;20192;-41
2021/11/08 02:22:06;;;;;;;3.03;2.10;;;22.10;54.40;;;;;;5027675;28;20227;-41
2021/11/08 02:24:40;;;;;;;2.53;1.98;;;22.10;54.90;;;;;;5029899;28;20279;-42
2021/11/08 02:27:10;;;;;;;2.85;2.22;;;22.10;54.30;;;;;;5029726;28;20196;-41
2021/11/08 02:29:42;;;;;;;3.30;2.45;;;22.10;54.40;;;;;;5015850;28;20205;-44
2021/11/08 02:32:13;;;;;;;2.03;1.83;;;22.10;54.40;;;;;;5025480;28;20204;-41
2021/11/08 02:34:43;;;;;;;4.47;2.30;;;22.20;54.40;;;;;;5027649;28;20287;-43
2021/11/08 02:37:16;;;;;;;2.55;2.17;;;22.20;54.40;;;;;;5027466;28;20196;-40
2021/11/08 02:39:49;;;;;;;2.25;1.85;;;22.20;54.30;;;;;;5027646;28;20204;-43
2021/11/08 02:42:19;;;;;;;2.65;2.45;;;22.20;54.30;;;;;;5027744;28;20294;-42
2021/11/08 02:44:50;;;;;;;2.92;2.25;;;22.30;54.30;;;;;;5008552;28;20192;-40
2021/11/08 02:47:21;;;;;;;3.55;2.40;;;22.30;54.30;;;;;;5021590;28;20574;-41
2021/11/08 02:50:01;;;;;;;2.50;2.10;;;22.30;54.20;;;;;;5028300;28;20196;-41
2021/11/08 02:52:33;;;;;;;2.50;2.10;;;22.30;54.30;;;;;;5028475;28;20699;-44
2021/11/08 02:55:04;;;;;;;2.10;1.90;;;22.30;54.30;;;;;;5024435;28;20642;-45
2021/11/08 02:57:36;;;;;;;2.50;2.03;;;22.30;54.30;;;;;;5022462;28;20279;-43
2021/11/08 03:00:10;;;;;;;2.20;2.00;;;22.30;54.20;;;;;;5026953;28;20200;-41
2021/11/08 03:02:41;;;;;;;2.53;2.30;;;22.30;54.20;;;;;;5025686;28;20319;-47
2021/11/08 03:05:15;;;;;;;2.88;2.53;;;22.40;54.20;;;;;;5027902;28;20583;-45
2021/11/08 03:07:47;;;;;;;2.30;2.10;;;22.40;54.10;;;;;;5027528;28;20196;-45
2021/11/08 03:10:23;;;;;;;2.20;1.90;;;22.40;54.10;;;;;;5027665;28;20632;-44
2021/11/08 03:12:56;;;;;;;2.70;1.90;;;22.40;54.10;;;;;;5028038;28;20616;-43
2021/11/08 03:15:43;;;;;;;4.65;2.22;;;22.40;54.10;;;;;;5029375;28;20638;-41
2021/11/08 03:18:25;;;;;;;2.60;2.03;;;22.40;54.00;;;;;;5028309;28;20291;-44
2021/11/08 03:20:57;;;;;;;2.58;2.10;;;22.40;54.00;;;;;;5027104;28;20211;-42
2021/11/08 03:23:30;;;;;;;2.53;2.10;;;22.50;54.00;;;;;;5027081;28;20224;-42
2021/11/08 03:26:10;;;;;;;2.28;2.17;;;22.40;53.90;;;;;;5026983;28;20204;-44
2021/11/08 03:28:40;;;;;;;3.28;2.00;;;22.40;53.90;;;;;;5027085;28;20192;-47
2021/11/08 03:31:11;;;;;;;2.83;2.25;;;22.40;53.90;;;;;;5025443;28;20296;-41
2021/11/08 03:33:44;;;;;;;2.35;2.15;;;22.50;54.00;;;;;;5030177;28;20228;-44
2021/11/08 03:36:15;;;;;;;1.92;1.83;;;22.50;54.00;;;;;;5031257;28;20203;-43
2021/11/08 03:38:48;;;;;;;2.63;2.10;;;22.50;54.00;;;;;;5014876;28;20201;-42
2021/11/08 03:41:18;;;;;;;3.35;2.28;;;22.50;54.60;;;;;;5025953;28;21424;-47
2021/11/08 03:43:49;;;;;;;2.55;1.90;;;22.50;54.00;;;;;;5028696;28;20232;-44
2021/11/08 03:46:20;;;;;;;2.30;2.10;;;22.50;54.00;;;;;;5029295;28;20233;-42
2021/11/08 03:48:50;;;;;;;2.50;2.05;;;22.50;54.00;;;;;;5030129;28;20204;-45
2021/11/08 03:51:21;;;;;;;2.40;2.20;;;22.50;53.90;;;;;;5042150;22;20747;-48
2021/11/08 03:53:53;;;;;;;2.70;2.03;;;22.50;53.90;;;;;;5012133;28;20257;-43
2021/11/08 03:56:24;;;;;;;3.08;2.10;;;22.50;53.80;;;;;;4997587;28;20288;-46
2021/11/08 03:58:54;;;;;;;2.08;1.88;;;22.50;53.80;;;;;;4997739;28;20204;-46
2021/11/08 04:01:25;;;;;;;2.60;2.20;;;22.50;53.80;;;;;;5004979;28;20213;-45
2021/11/08 04:03:55;;;;;;;2.35;2.15;;;22.50;53.80;;;;;;5011359;28;20320;-47
2021/11/08 04:06:26;;;;;;;2.65;2.25;;;22.50;53.80;;;;;;5011140;28;20887;-43
2021/11/08 04:08:59;;;;;;;2.78;2.10;;;22.50;53.70;;;;;;5010650;28;20220;-43
2021/11/08 04:11:29;;;;;;;2.72;2.10;;;22.50;53.70;;;;;;5010142;28;20205;-43
2021/11/08 04:14:00;;;;;;;5.05;1.70;;;22.50;53.70;;;;;;5010400;28;20767;-45
2021/11/08 04:16:33;;;;;;;2.55;2.33;;;22.50;53.60;;;;;;5012305;28;20229;-45
2021/11/08 04:19:04;;;;;;;3.05;1.90;;;22.50;53.70;;;;;;5021605;28;20196;-45
2021/11/08 04:21:36;;;;;;;2.78;2.20;;;22.50;53.70;;;;;;5011151;28;20232;-46
2021/11/08 04:24:09;;;;;;;1.73;1.60;;;22.50;53.70;;;;;;5010371;28;20224;-42
2021/11/08 04:26:40;;;;;;;2.70;1.92;;;22.40;53.60;;;;;;5011836;28;20201;-46
2021/11/08 04:29:10;;;;;;;1.90;1.70;;;22.50;53.60;;;;;;5010391;28;20236;-42
2021/11/08 04:31:42;;;;;;;2.00;1.88;;;22.50;53.70;;;;;;5008966;28;20409;-42
2021/11/08 04:34:22;;;;;;;2.47;1.73;;;22.50;53.70;;;;;;5001571;28;20225;-44
2021/11/08 04:39:58;;;;;;;2.08;1.92;;;22.50;53.70;;;;;;5009980;28;21009;-44
2021/11/08 04:42:32;;;;;;;2.63;1.95;;;22.40;53.60;;;;;;5008204;28;20220;-42
2021/11/08 04:50:46;;;;;;;2.35;1.98;;;22.40;53.60;;;;;;5007304;28;20204;-44
2021/11/08 04:53:32;;;;;;;2.30;2.08;;;22.40;53.70;;;;;;5003866;28;20622;-42
2021/11/08 04:56:34;;;;;;;2.78;2.38;;;22.40;53.70;;;;;;5006437;28;20747;-42
2021/11/08 05:30:19;;;;;;;4.55;2.08;;;22.30;53.50;;;;;;4927439;28;20619;-45
2021/11/08 05:32:51;;;;;;;2.10;1.90;;;22.30;53.60;;;;;;4982096;28;20224;-43
2021/11/08 05:35:22;;;;;;;3.05;2.10;;;22.30;53.60;;;;;;5008166;28;20266;-45
2021/11/08 05:37:53;;;;;;;2.03;1.83;;;22.30;53.60;;;;;;4993078;28;20272;-46
2021/11/08 05:40:28;;;;;;;2.67;1.95;;;22.30;53.60;;;;;;5008129;28;20256;-49
2021/11/08 05:43:00;;;;;;;2.20;2.00;;;22.30;53.60;;;;;;4993561;28;20264;-44
2021/11/08 05:45:33;;;;;;;2.40;2.20;;;22.30;53.60;;;;;;5007449;28;20231;-48
2021/11/08 05:48:06;;;;;;;1.90;1.80;;;22.30;53.60;;;;;;5015501;28;20232;-46
2021/11/08 05:50:38;;;;;;;2.30;2.10;;;22.20;53.50;;;;;;5001636;28;20889;-43
2021/11/08 05:53:10;;;;;;;3.00;2.03;;;22.20;53.60;;;;;;5006276;28;20392;-48
2021/11/08 05:55:43;;;;;;;1.98;1.85;;;22.20;53.60;;;;;;5008660;28;20208;-45
2021/11/08 05:58:28;;;;;;;2.22;1.88;;;22.20;53.50;;;;;;5001462;28;20260;-48
2021/11/08 06:51:07;;;;;;;2.28;2.08;;;21.90;53.60;;;;;;5007298;28;20235;-47
2021/11/08 06:53:38;;;;;;;2.15;2.03;;;21.90;53.60;;;;;;4996898;28;20217;-41
2021/11/08 06:56:09;;;;;;;3.55;1.35;;;21.90;53.70;;;;;;5005928;28;20205;-38
2021/11/08 06:58:41;;;;;;;1.50;1.20;;;21.90;54.00;;;;;;5007552;28;20204;-37
2021/11/08 07:01:14;;;;;;;2.22;1.35;;;21.80;54.10;;;;;;4998592;28;20201;-49
2021/11/08 07:03:44;;;;;;;1.33;1.23;;;21.70;54.20;;;;;;5008501;28;20233;-48
2021/11/08 07:06:17;;;;;;;1.38;1.00;;;21.70;54.90;;;;;;5005378;28;20288;-45
2021/11/08 07:08:48;;;;;;;2.78;1.20;;;21.60;54.40;;;;;;5012567;28;20288;-43
2021/11/08 07:11:19;;;;;;;2.35;1.20;;;21.50;54.40;;;;;;4996391;28;20623;-47
2021/11/08 07:13:50;;;;;;;2.80;1.40;;;21.50;54.60;;;;;;4994631;28;20229;-43
2021/11/08 07:16:21;;;;;;;1.30;1.20;;;21.40;54.70;;;;;;5012442;28;20291;-45
2021/11/08 07:18:51;;;;;;;2.30;1.20;;;21.50;54.70;;;;;;5012246;28;20208;-43
2021/11/08 07:21:24;;;;;;;2.95;1.38;;;21.40;54.80;;;;;;5010286;28;20201;-44
2021/11/08 07:23:55;;;;;;;2.45;1.25;;;21.40;54.80;;;;;;5010921;28;20323;-45
2021/11/08 07:26:26;;;;;;;1.85;1.42;;;21.40;54.80;;;;;;5011239;28;20282;-47
2021/11/08 07:28:56;;;;;;;1.23;1.05;;;21.40;54.80;;;;;;5011969;28;20235;-42
2021/11/08 07:31:27;;;;;;;1.38;1.15;;;21.30;54.70;;;;;;5012292;28;20280;-44
2021/11/08 07:33:57;;;;;;;1.98;1.45;;;21.30;54.70;;;;;;5011247;28;20245;-44
2021/11/08 07:36:30;;;;;;;1.45;1.35;;;21.30;54.70;;;;;;5000097;28;20744;-43
2021/11/08 07:39:00;;;;;;;1.35;1.25;;;21.30;54.70;;;;;;5012078;28;20296;-47
2021/11/08 07:41:30;;;;;;;1.38;1.20;;;21.30;54.70;;;;;;4999712;28;20288;-44
2021/11/08 07:44:02;;;;;;;1.70;1.60;;;21.30;54.80;;;;;;5006257;28;20242;-44
2021/11/08 07:46:32;;;;;;;2.75;1.40;;;21.30;55.40;;;;;;5011883;28;20606;-44
2021/11/08 07:49:02;;;;;;;1.40;1.25;;;21.30;54.80;;;;;;5018009;28;20197;-44
2021/11/08 07:51:35;;;;;;;1.58;1.30;;;21.30;54.80;;;;;;5009597;28;20694;-45
2021/11/08 07:54:06;;;;;;;1.67;1.33;;;21.30;54.80;;;;;;5010180;28;20304;-44
2021/11/08 07:56:37;;;;;;;1.55;1.45;;;21.30;54.80;;;;;;5010951;28;20293;-47
2021/11/08 07:59:07;;;;;;;1.60;1.50;;;21.30;54.80;;;;;;5011960;28;20201;-43
2021/11/08 08:01:38;;;;;;;1.50;1.40;;;21.30;54.80;;;;;;4997516;28;20280;-45
2021/11/08 08:04:08;;;;;;;1.42;1.33;;;21.30;54.80;;;;;;5008975;28;20315;-45
2021/11/08 08:06:41;;;;;;;1.70;1.60;;;21.30;54.80;;;;;;5004194;28;20245;-42
2021/11/08 08:09:11;;;;;;;1.48;1.38;;;21.20;54.70;;;;;;5010335;28;20335;-43
2021/11/08 08:11:42;;;;;;;1.48;1.38;;;21.20;54.80;;;;;;5007166;28;20255;-48
2021/11/08 08:14:12;;;;;;;1.63;1.40;;;21.20;54.70;;;;;;4999327;28;20303;-46
2021/11/08 08:16:43;;;;;;;1.50;1.40;;;21.20;54.70;;;;;;5010020;28;20233;-47
2021/11/08 08:19:13;;;;;;;1.67;1.40;;;21.20;54.70;;;;;;5010976;28;20292;-43
2021/11/08 08:21:46;;;;;;;1.58;1.48;;;21.20;54.70;;;;;;5011064;28;20197;-45
2021/11/08 08:24:16;;;;;;;1.40;1.30;;;21.20;54.70;;;;;;5011161;28;20263;-42
2021/11/08 08:26:47;;;;;;;1.50;1.40;;;21.20;54.70;;;;;;5009635;28;20642;-44
2021/11/08 08:29:18;;;;;;;1.48;1.30;;;21.20;54.70;;;;;;5010499;28;20286;-45
2021/11/08 08:31:50;;;;;;;1.88;1.23;;;21.20;54.70;;;;;;5010014;28;20200;-43
2021/11/08 08:34:22;;;;;;;1.60;1.50;;;21.10;54.70;;;;;;5010527;28;20691;-42
2021/11/08 08:36:56;;;;;;;1.80;1.60;;;21.10;54.60;;;;;;5008508;28;20205;-47
2021/11/08 08:39:27;;;;;;;1.30;1.20;;;21.10;54.60;;;;;;4995373;28;20196;-44
2021/11/08 08:41:57;;;;;;;1.60;1.50;;;21.20;54.70;;;;;;5011137;28;20617;-43
2021/11/08 08:44:28;;;;;;;1.55;1.45;;;21.10;54.60;;;;;;5011172;28;20229;-42
2021/11/08 08:46:58;;;;;;;1.40;1.30;;;21.10;54.60;;;;;;5012501;28;20280;-44
2021/11/08 08:49:29;;;;;;;1.80;1.50;;;21.10;54.60;;;;;;5011071;28;20387;-42
2021/11/08 08:52:01;;;;;;;1.42;1.33;;;21.10;54.70;;;;;;5009748;28;20288;-43
2021/11/08 08:54:32;;;;;;;2.30;1.30;;;21.10;54.70;;;;;;5009696;28;20300;-42
2021/11/08 08:57:02;;;;;;;1.60;1.33;;;21.10;54.70;;;;;;5008523;28;20659;-44
2021/11/08 08:59:33;;;;;;;1.30;1.15;;;21.00;54.70;;;;;;5007940;28;20622;-44
2021/11/08 09:02:04;;;;;;;1.73;1.63;;;21.10;54.70;;;;;;4996838;28;20261;-42
2021/11/08 09:04:34;;;;;;;2.00;1.40;;;21.00;54.70;;;;;;5011296;28;20601;-43
2021/11/08 09:07:07;;;;;;;1.33;1.23;;;21.00;54.70;;;;;;4999298;28;20199;-43
2021/11/08 09:09:38;;;;;;;1.45;1.35;;;21.00;54.70;;;;;;5009185;28;20284;-44
2021/11/08 09:12:09;;;;;;;1.48;1.38;;;21.00;54.70;;;;;;5009904;28;20287;-43
2021/11/08 09:14:40;;;;;;;1.48;1.38;;;21.00;54.70;;;;;;5001173;28;20280;-45
2021/11/08 09:17:12;;;;;;;1.52;1.42;;;21.00;54.70;;;;;;5005496;28;20315;-44
2021/11/08 09:19:43;;;;;;;1.50;1.40;;;21.00;54.70;;;;;;5017996;28;20211;-44
2021/11/08 09:22:15;;;;;;;1.40;1.30;;;21.00;54.60;;;;;;5009820;28;20748;-43
2021/11/08 09:24:54;;;;;;;1.58;1.33;;;21.00;54.70;;;;;;5008690;28;20309;-45
2021/11/08 09:27:24;;;;;;;1.63;1.52;;;21.00;54.70;;;;;;5009002;28;20192;-42
2021/11/08 09:29:55;;;;;;;1.55;1.45;;;21.00;54.70;;;;;;4994499;28;20296;-45
2021/11/08 09:32:25;;;;;;;1.92;1.30;;;21.00;54.70;;;;;;5010319;28;20204;-43
2021/11/08 09:34:56;;;;;;;1.73;1.50;;;20.90;54.70;;;;;;5008754;28;20292;-44
2021/11/08 09:37:32;;;;;;;1.65;1.17;;;20.90;54.70;;;;;;5008287;28;20631;-45
2021/11/08 09:40:03;;;;;;;1.50;1.40;;;20.90;54.70;;;;;;5009106;28;20783;-49
2021/11/08 09:42:34;;;;;;;1.63;1.52;;;20.90;54.70;;;;;;5008926;28;20308;-45
2021/11/08 09:45:07;;;;;;;1.42;1.30;;;20.90;54.80;;;;;;5008617;28;20223;-42
2021/11/08 09:47:38;;;;;;;1.40;1.30;;;20.90;54.70;;;;;;5009508;28;20696;-45
2021/11/08 09:50:11;;;;;;;3.08;1.40;;;20.90;55.30;;;;;;5006530;28;20301;-44
2021/11/08 09:52:45;;;;;;;1.65;1.35;;;20.90;54.70;;;;;;5007926;28;20267;-48
2021/11/08 09:55:18;;;;;;;1.40;1.30;;;20.80;54.70;;;;;;5010756;28;20288;-42
2021/11/08 09:57:50;;;;;;;1.40;1.30;;;20.80;54.70;;;;;;5006833;28;20207;-45
2021/11/08 10:00:24;;;;;;;1.63;1.52;;;20.80;54.70;;;;;;5008070;28;20287;-45
2021/11/08 10:02:59;;;;;;;1.40;1.30;;;20.80;54.70;;;;;;5008087;28;20770;-47
2021/11/08 10:05:31;;;;;;;1.55;1.30;;;20.80;54.70;;;;;;5008439;28;20227;-47
2021/11/08 10:08:04;;;;;;;1.15;1.15;;;20.80;54.60;;;;;;5007399;28;20732;-44
2021/11/08 10:10:35;;;;;;;1.35;1.25;;;20.80;54.70;;;;;;5008339;28;20683;-44
2021/11/08 10:13:10;;;;;;;1.45;1.35;;;20.80;54.70;;;;;;5008387;28;20307;-45
2021/11/08 10:15:43;;;;;;;1.40;1.30;;;20.70;54.70;;;;;;5009906;28;20196;-43
2021/11/08 10:18:14;;;;;;;1.60;1.50;;;20.70;54.70;;;;;;5020110;28;20283;-45
2021/11/08 10:20:47;;;;;;;1.42;1.33;;;20.70;54.70;;;;;;5009788;28;20303;-47
2021/11/08 10:23:21;;;;;;;1.50;1.40;;;20.70;54.70;;;;;;4996065;28;20225;-44
2021/11/08 10:25:52;;;;;;;1.52;1.42;;;20.70;54.70;;;;;;5006980;28;20294;-49
2021/11/08 10:28:24;;;;;;;1.65;1.35;;;20.70;54.70;;;;;;4999799;28;20284;-46
2021/11/08 10:31:01;;;;;;;1.30;1.20;;;20.70;54.80;;;;;;5001965;28;20212;-44
2021/11/08 10:33:34;;;;;;;1.50;1.40;;;20.70;54.70;;;;;;5003204;28;20312;-45
2021/11/08 10:36:11;;;;;;;1.23;1.13;;;20.70;54.80;;;;;;5000244;28;20193;-44
2021/11/08 10:38:45;;;;;;;2.33;1.40;;;20.60;54.80;;;;;;5008801;28;20287;-46
2021/11/08 10:41:18;;;;;;;1.63;1.50;;;20.60;54.70;;;;;;5013228;28;20681;-43
2021/11/08 10:43:52;;;;;;;1.83;1.42;;;20.60;54.70;;;;;;5013417;28;20638;-46
2021/11/08 10:46:26;;;;;;;1.35;1.25;;;20.60;54.70;;;;;;5013636;28;20203;-47
2021/11/08 10:48:58;;;;;;;1.20;1.10;;;20.60;54.70;;;;;;5013307;28;20196;-44
2021/11/08 10:51:31;;;;;;;1.38;1.27;;;20.60;54.60;;;;;;5012402;28;20564;-46
2021/11/08 10:54:04;;;;;;;1.17;1.10;;;20.60;54.60;;;;;;5001690;28;20670;-44
2021/11/08 10:56:37;;;;;;;1.42;1.33;;;20.60;54.70;;;;;;5005266;28;20254;-48
2021/11/08 10:59:11;;;;;;;1.27;1.17;;;20.60;54.70;;;;;;5005590;28;20304;-48
2021/11/08 11:01:46;;;;;;;1.38;1.27;;;20.50;54.60;;;;;;4999635;28;20635;-45
2021/11/08 11:04:17;;;;;;;1.65;1.30;;;20.50;54.70;;;;;;5001496;28;20310;-43
2021/11/08 11:06:50;;;;;;;1.45;1.35;;;20.50;54.70;;;;;;4998500;28;20208;-46
2021/11/08 11:09:24;;;;;;;1.20;1.10;;;20.50;54.70;;;;;;5007540;28;20279;-46
2021/11/08 11:12:09;;;;;;;1.58;1.20;;;20.50;54.70;;;;;;5011763;28;20232;-45
2021/11/08 11:14:41;;;;;;;1.30;1.20;;;20.50;54.70;;;;;;5012654;28;20197;-44
2021/11/08 11:17:14;;;;;;;1.30;1.20;;;20.50;54.70;;;;;;5015502;28;20279;-47
2021/11/08 11:19:44;;;;;;;1.33;1.23;;;20.50;54.70;;;;;;5013535;28;20759;-46
2021/11/08 11:22:20;;;;;;;1.20;1.10;;;20.50;54.70;;;;;;5011942;28;20295;-45
2021/11/08 11:24:54;;;;;;;1.33;1.23;;;20.50;54.70;;;;;;5011228;28;20584;-47
2021/11/08 11:27:37;;;;;;;1.25;1.15;;;20.50;54.80;;;;;;5011248;28;20288;-46
2021/11/08 11:30:16;;;;;;;1.30;1.20;;;20.40;54.70;;;;;;5011029;28;20203;-45
2021/11/08 11:32:48;;;;;;;1.30;1.20;;;20.50;54.70;;;;;;5010774;28;20220;-48
2021/11/08 11:35:21;;;;;;;1.40;1.30;;;20.40;54.60;;;;;;5009699;28;20284;-45
2021/11/08 11:38:05;;;;;;;1.63;1.23;;;20.40;54.60;;;;;;5012127;28;20201;-44
2021/11/08 11:40:40;;;;;;;1.40;1.30;;;20.40;54.70;;;;;;4995267;28;20630;-46
2021/11/08 11:43:14;;;;;;;1.30;1.20;;;20.40;54.60;;;;;;5011113;28;20323;-44
2021/11/08 11:45:52;;;;;;;1.30;1.20;;;20.40;54.70;;;;;;5011271;28;20319;-45
2021/11/08 11:48:25;;;;;;;1.33;1.23;;;20.40;54.70;;;;;;5024740;28;20295;-44
2021/11/08 11:50:56;;;;;;;1.20;1.10;;;20.40;54.70;;;;;;5000754;28;20293;-43
2021/11/08 11:53:31;;;;;;;1.33;1.23;;;20.40;54.80;;;;;;5010720;28;20315;-43
2021/11/08 11:56:04;;;;;;;1.30;1.20;;;20.30;54.70;;;;;;5010244;28;20215;-44
2021/11/08 11:58:36;;;;;;;1.33;1.23;;;20.30;54.80;;;;;;4997297;28;20252;-45
2021/11/08 12:01:08;;;;;;;1.40;1.20;;;20.30;54.70;;;;;;4999492;28;20444;-45
2021/11/08 12:03:40;;;;;;;1.50;1.35;;;20.30;54.70;;;;;;5009281;28;20303;-44
2021/11/08 12:06:14;;;;;;;1.40;1.30;;;20.30;54.80;;;;;;5009656;28;20292;-46
2021/11/08 12:08:46;;;;;;;1.35;1.20;;;20.30;54.80;;;;;;5010645;28;20232;-45
2021/11/08 12:11:30;;;;;;;1.23;1.13;;;20.30;54.80;;;;;;5011545;28;20204;-43
2021/11/08 12:14:03;;;;;;;1.42;1.33;;;20.30;54.80;;;;;;4995411;28;20300;-44
2021/11/08 12:16:34;;;;;;;1.00;1.00;;;20.30;54.70;;;;;;5008585;28;20216;-46
2021/11/08 12:19:05;;;;;;;1.30;1.20;;;20.30;54.70;;;;;;5009784;28;20203;-42
2021/11/08 12:21:37;;;;;;;1.30;1.20;;;20.30;55.20;;;;;;5009336;28;20279;-43
2021/11/08 12:24:20;;;;;;;1.30;1.20;;;20.30;54.80;;;;;;5004282;28;20726;-46
2021/11/08 12:27:03;;;;;;;1.23;1.13;;;20.20;54.80;;;;;;5000662;28;21042;-43
2021/11/08 12:29:34;;;;;;;1.27;1.17;;;20.30;54.80;;;;;;5009600;28;20193;-42
2021/11/08 12:32:09;;;;;;;1.25;1.15;;;20.20;54.70;;;;;;5009254;28;20300;-43
2021/11/08 12:34:45;;;;;;;0.98;0.98;;;20.20;54.80;;;;;;5009161;28;20549;-45
2021/11/08 12:37:16;;;;;;;1.20;1.10;;;20.20;54.80;;;;;;5001912;28;20197;-43
2021/11/08 12:39:57;;;;;;;1.15;1.08;;;20.20;54.80;;;;;;5010106;28;20204;-46
2021/11/08 12:42:41;;;;;;;1.17;1.10;;;20.20;54.80;;;;;;5010459;28;20201;-43
2021/11/08 12:45:16;;;;;;;1.33;1.23;;;20.10;54.70;;;;;;5010592;28;20227;-45
2021/11/08 12:47:46;;;;;;;1.20;1.10;;;20.20;54.80;;;;;;5017542;28;20704;-42
2021/11/08 12:50:17;;;;;;;1.33;1.10;;;20.20;54.80;;;;;;5011367;28;20200;-44
2021/11/08 12:52:47;;;;;;;1.27;1.17;;;20.20;54.80;;;;;;5008904;28;20803;-42
2021/11/08 12:55:18;;;;;;;1.23;1.13;;;20.20;54.80;;;;;;5009610;28;20231;-46
2021/11/08 12:57:58;;;;;;;0.95;0.90;;;20.10;54.80;;;;;;5006296;28;20220;-44
2021/11/08 13:00:29;;;;;;;1.15;1.10;;;20.10;54.70;;;;;;5009576;28;20309;-43
2021/11/08 13:03:10;;;;;;;1.40;1.27;;;20.10;54.70;;;;;;5009070;28;20303;-42
2021/11/08 13:05:46;;;;;;;1.30;0.98;;;20.10;54.70;;;;;;4995037;28;20220;-45
2021/11/08 13:08:24;;;;;;;2.25;1.08;;;20.10;54.70;;;;;;5008134;28;20652;-45
2021/11/08 13:11:04;;;;;;;1.15;1.05;;;20.10;54.70;;;;;;4994898;28;20269;-44
2021/11/08 13:13:36;;;;;;;1.20;1.10;;;20.10;54.70;;;;;;4995113;28;20684;-44
2021/11/08 13:16:11;;;;;;;1.38;1.25;;;20.10;54.70;;;;;;4994699;28;20292;-46
2021/11/08 13:18:43;;;;;;;1.08;0.98;;;20.00;54.70;;;;;;5006716;28;20197;-48
2021/11/08 13:21:22;;;;;;;1.20;1.10;;;20.10;54.80;;;;;;4998775;28;20320;-45
2021/11/08 13:23:56;;;;;;;1.00;1.00;;;20.00;54.70;;;;;;5001945;28;20256;-46
2021/11/08 13:26:27;;;;;;;1.30;1.20;;;20.00;54.80;;;;;;5008674;28;20303;-48
2021/11/08 13:29:01;;;;;;;1.25;1.15;;;20.00;54.70;;;;;;5008365;28;20623;-43
2021/11/08 13:31:31;;;;;;;1.30;1.20;;;20.00;54.70;;;;;;5007803;28;20224;-45
2021/11/08 13:34:02;;;;;;;1.05;1.05;;;20.00;54.80;;;;;;5008748;28;20775;-46
2021/11/08 13:36:33;;;;;;;1.30;1.20;;;20.00;54.80;;;;;;5008897;28;20732;-43
2021/11/08 13:39:03;;;;;;;1.20;1.10;;;20.00;54.80;;;;;;5007992;28;20197;-45
2021/11/08 13:41:35;;;;;;;1.27;1.05;;;20.00;54.70;;;;;;4995733;28;20229;-45
2021/11/08 13:44:09;;;;;;;1.38;1.27;;;20.00;54.70;;;;;;5004895;28;20225;-44
2021/11/08 13:46:42;;;;;;;1.17;0.98;;;20.00;54.70;;;;;;5007301;28;20725;-44
2021/11/08 13:49:14;;;;;;;0.93;0.93;;;20.00;54.70;;;;;;5015535;28;20223;-44
2021/11/08 13:51:47;;;;;;;1.30;1.20;;;20.00;54.70;;;;;;5006577;28;20244;-45
2021/11/08 13:54:19;;;;;;;0.95;0.95;;;20.00;54.70;;;;;;5006872;28;20275;-43
2021/11/08 13:56:52;;;;;;;1.20;1.00;;;20.00;54.80;;;;;;4994220;28;20287;-43
2021/11/08 13:59:27;;;;;;;1.25;1.15;;;19.90;54.70;;;;;;4991892;28;20288;-46
2021/11/08 14:01:59;;;;;;;1.17;1.08;;;19.90;54.80;;;;;;5007738;28;20200;-46
2021/11/08 14:04:36;;;;;;;1.10;1.00;;;19.90;54.80;;;;;;4993240;28;20304;-46
2021/11/08 14:07:08;;;;;;;1.15;1.05;;;19.90;54.70;;;;;;5007958;28;20280;-46
2021/11/08 14:09:40;;;;;;;1.10;1.00;;;19.90;54.80;;;;;;5007954;28;20299;-43
2021/11/08 14:12:12;;;;;;;1.38;1.27;;;19.90;54.80;;;;;;5007882;28;20207;-43
2021/11/08 14:14:47;;;;;;;1.10;1.10;;;19.90;54.80;;;;;;5007039;28;20231;-43
2021/11/08 14:17:22;;;;;;;1.10;0.95;;;19.90;54.80;;;;;;5007183;28;20197;-43
2021/11/08 14:19:58;;;;;;;0.93;0.93;;;19.90;54.80;;;;;;5007866;28;20291;-43
2021/11/08 14:22:29;;;;;;;1.10;1.02;;;19.90;54.70;;;;;;5006450;28;20228;-44
2021/11/08 14:25:02;;;;;;;1.15;1.05;;;19.90;54.70;;;;;;5009409;28;20219;-43
2021/11/08 14:27:34;;;;;;;1.20;1.10;;;19.90;54.70;;;;;;4991391;28;20280;-44
2021/11/08 14:30:16;;;;;;;1.48;1.20;;;19.90;54.70;;;;;;5007636;28;20287;-46
2021/11/08 14:32:52;;;;;;;1.10;1.00;;;19.90;54.80;;;;;;5008065;28;20312;-46
2021/11/08 14:35:26;;;;;;;1.55;1.17;;;19.90;54.70;;;;;;5006882;28;20274;-43
2021/11/08 14:38:03;;;;;;;1.10;1.00;;;19.90;54.70;;;;;;5006177;28;20204;-43
2021/11/08 14:40:36;;;;;;;1.30;1.20;;;19.80;54.70;;;;;;5007764;28;20199;-44
2021/11/08 14:43:16;;;;;;;1.10;1.10;;;19.80;54.70;;;;;;5007874;28;20311;-42
2021/11/08 14:45:56;;;;;;;1.05;0.98;;;19.80;54.80;;;;;;5006516;28;20591;-44